Time;durP1;ratioP1;P1;durP2;ratioP2;P2;SDS_P1;SDS_P2;PMS_P1;PMS_P2;Temp;Humidity;BMP_temperature;BMP_pressure;BME280_temperature;BME280_humidity;BME280_pressure;Samples;Min_cycle;Max_cycle;Signal;HPM_P1;HPM_P2
2023/07/18 00:00:18;;;;;;;5.70;2.17;;;;;;;;;;6258981;28;20150;-80
2023/07/18 00:03:20;;;;;;;4.75;2.15;;;;;;;;;;6256574;28;20117;-82
2023/07/18 00:06:24;;;;;;;4.72;1.80;;;;;;;;;;6274519;28;20525;-81
2023/07/18 00:09:26;;;;;;;4.85;2.10;;;;;;;;;;6268917;28;20045;-80
2023/07/18 00:12:27;;;;;;;5.03;2.00;;;;;;;;;;6256305;28;20487;-82
2023/07/18 00:15:29;;;;;;;3.40;1.98;;;;;;;;;;6275595;28;20060;-83
2023/07/18 00:18:31;;;;;;;3.78;1.88;;;;;;;;;;6272409;28;20048;-82
2023/07/18 00:21:32;;;;;;;2.88;2.00;;;;;;;;;;6273829;28;20045;-81
2023/07/18 00:24:34;;;;;;;3.78;2.08;;;;;;;;;;6273112;28;20033;-81
2023/07/18 00:27:43;;;;;;;3.50;2.08;;;;;;;;;;6279573;28;20052;-82
2023/07/18 00:30:45;;;;;;;3.80;1.98;;;;;;;;;;6248099;28;20045;-81
2023/07/18 00:33:47;;;;;;;4.33;2.23;;;;;;;;;;6280976;28;20049;-82
2023/07/18 00:36:54;;;;;;;5.97;2.30;;;;;;;;;;6280474;28;20051;-83
2023/07/18 00:39:56;;;;;;;4.97;2.42;;;;;;;;;;6258907;28;20056;-83
2023/07/18 00:42:58;;;;;;;4.57;2.45;;;;;;;;;;6289200;28;20032;-80
2023/07/18 00:46:01;;;;;;;3.20;2.15;;;;;;;;;;6298238;28;20045;-80
2023/07/18 00:49:05;;;;;;;3.97;2.08;;;;;;;;;;6259558;28;20047;-83
2023/07/18 00:52:07;;;;;;;4.87;2.03;;;;;;;;;;6270025;28;20044;-80
2023/07/18 00:55:10;;;;;;;3.90;2.67;;;;;;;;;;6236240;28;20052;-80
2023/07/18 00:58:12;;;;;;;4.13;2.17;;;;;;;;;;6274040;28;20393;-80
2023/07/18 01:01:14;;;;;;;5.05;1.95;;;;;;;;;;6245648;28;20049;-79
2023/07/18 01:04:18;;;;;;;4.18;2.15;;;;;;;;;;6266841;28;20039;-80
2023/07/18 01:07:20;;;;;;;4.20;2.00;;;;;;;;;;6257486;28;20059;-80
2023/07/18 01:10:24;;;;;;;4.00;1.70;;;;;;;;;;6266791;28;20697;-80
2023/07/18 01:13:27;;;;;;;4.85;2.50;;;;;;;;;;6262811;28;20064;-81
2023/07/18 01:16:29;;;;;;;3.47;1.88;;;;;;;;;;6277081;28;20075;-81
2023/07/18 01:19:30;;;;;;;5.40;2.08;;;;;;;;;;6259599;28;20091;-81
2023/07/18 01:22:32;;;;;;;4.78;2.28;;;;;;;;;;6273929;28;20494;-81
2023/07/18 01:25:34;;;;;;;4.43;1.95;;;;;;;;;;6247972;28;20048;-81
2023/07/18 01:28:36;;;;;;;7.85;2.13;;;;;;;;;;6264557;28;20049;-81
2023/07/18 01:31:38;;;;;;;4.13;2.50;;;;;;;;;;6263956;28;20518;-81
2023/07/18 01:34:40;;;;;;;2.95;2.00;;;;;;;;;;6263034;28;20519;-80
2023/07/18 01:37:46;;;;;;;5.63;2.75;;;;;;;;;;6262326;28;20052;-80
2023/07/18 01:40:48;;;;;;;3.95;2.00;;;;;;;;;;6288303;28;20052;-82
2023/07/18 01:43:49;;;;;;;4.32;2.28;;;;;;;;;;6270291;28;20051;-81
2023/07/18 01:46:51;;;;;;;4.97;2.10;;;;;;;;;;6284205;28;20445;-82
2023/07/18 01:49:53;;;;;;;2.85;1.90;;;;;;;;;;6256251;28;20186;-80
2023/07/18 01:52:55;;;;;;;6.03;2.20;;;;;;;;;;6262070;28;20151;-81
2023/07/18 01:55:58;;;;;;;4.53;2.00;;;;;;;;;;6259621;28;20045;-80
2023/07/18 01:59:01;;;;;;;4.43;2.28;;;;;;;;;;6247202;28;20056;-81
2023/07/18 02:02:06;;;;;;;4.43;1.90;;;;;;;;;;6263723;28;20049;-83
2023/07/18 02:05:08;;;;;;;6.35;2.00;;;;;;;;;;6247513;28;20383;-81
2023/07/18 02:08:09;;;;;;;5.32;2.30;;;;;;;;;;6274973;28;20052;-80
2023/07/18 02:11:11;;;;;;;5.75;2.25;;;;;;;;;;6257646;28;20610;-80
2023/07/18 02:14:13;;;;;;;2.38;1.70;;;;;;;;;;6263587;28;20094;-81
2023/07/18 02:17:14;;;;;;;4.50;2.15;;;;;;;;;;6266414;28;20036;-80
2023/07/18 02:20:16;;;;;;;4.32;2.13;;;;;;;;;;6263731;28;20060;-81
2023/07/18 02:23:18;;;;;;;5.05;2.75;;;;;;;;;;6273081;28;20049;-80
2023/07/18 02:26:20;;;;;;;4.30;2.60;;;;;;;;;;6265062;28;20048;-81
2023/07/18 02:29:21;;;;;;;4.93;2.50;;;;;;;;;;6278125;28;20461;-81
2023/07/18 02:32:24;;;;;;;4.32;2.53;;;;;;;;;;6278694;28;20048;-81
2023/07/18 02:35:26;;;;;;;5.80;2.65;;;;;;;;;;6282248;28;20106;-81
2023/07/18 02:38:28;;;;;;;3.40;2.25;;;;;;;;;;6261933;28;20051;-79
2023/07/18 02:41:29;;;;;;;6.20;2.25;;;;;;;;;;6280496;28;20045;-80
2023/07/18 02:44:31;;;;;;;5.47;2.83;;;;;;;;;;6263047;28;20048;-81
2023/07/18 02:47:33;;;;;;;2.63;1.80;;;;;;;;;;6263047;28;20563;-81
2023/07/18 02:50:35;;;;;;;3.92;2.33;;;;;;;;;;6246642;28;20134;-80
2023/07/18 02:53:37;;;;;;;3.70;1.95;;;;;;;;;;6281251;28;20041;-80
2023/07/18 02:56:39;;;;;;;4.50;2.20;;;;;;;;;;6248634;28;20058;-81
2023/07/18 02:59:40;;;;;;;3.65;2.00;;;;;;;;;;6277645;28;20044;-81
2023/07/18 03:02:42;;;;;;;5.28;2.33;;;;;;;;;;6262901;28;20132;-81
2023/07/18 03:05:44;;;;;;;3.63;2.15;;;;;;;;;;6253787;28;20048;-80
2023/07/18 03:08:45;;;;;;;3.90;2.20;;;;;;;;;;6234454;28;20051;-80
2023/07/18 03:11:49;;;;;;;3.75;2.10;;;;;;;;;;6273483;28;20044;-82
2023/07/18 03:14:52;;;;;;;3.50;1.90;;;;;;;;;;6236384;28;20580;-80
2023/07/18 03:17:53;;;;;;;5.05;2.20;;;;;;;;;;6272107;28;20045;-81
2023/07/18 03:20:55;;;;;;;4.57;2.10;;;;;;;;;;6271321;28;20055;-82
2023/07/18 03:23:57;;;;;;;4.57;2.30;;;;;;;;;;6272417;28;20068;-80
2023/07/18 03:26:59;;;;;;;5.15;2.40;;;;;;;;;;6263885;28;20044;-80
2023/07/18 03:30:06;;;;;;;4.38;3.05;;;;;;;;;;6273722;28;20548;-78
2023/07/18 03:33:09;;;;;;;4.72;2.50;;;;;;;;;;6260934;28;20056;-78
2023/07/18 03:36:10;;;;;;;3.83;2.17;;;;;;;;;;6262554;28;20049;-80
2023/07/18 03:39:13;;;;;;;3.97;2.22;;;;;;;;;;6276555;28;20506;-79
2023/07/18 03:42:15;;;;;;;;;;;;;;;;;;6270521;28;20127;-80
2023/07/18 03:45:17;;;;;;;5.32;2.30;;;;;;;;;;6248502;28;19925;-79
2023/07/18 03:48:18;;;;;;;4.18;2.13;;;;;;;;;;6276995;28;20040;-79
2023/07/18 03:51:20;;;;;;;4.40;2.10;;;;;;;;;;6270626;28;20049;-80
2023/07/18 03:54:26;;;;;;;4.13;2.20;;;;;;;;;;6279584;28;20210;-79
2023/07/18 03:57:30;;;;;;;5.00;2.40;;;;;;;;;;6280138;28;20040;-81
2023/07/18 04:00:32;;;;;;;;;;;;;;;;;;6280565;28;20470;-81
2023/07/18 04:03:34;;;;;;;3.05;2.00;;;;;;;;;;6272668;28;20381;-79
2023/07/18 04:06:36;;;;;;;3.90;2.42;;;;;;;;;;6269307;28;20037;-80
2023/07/18 04:09:38;;;;;;;3.30;2.17;;;;;;;;;;6272498;28;20044;-80
2023/07/18 04:12:40;;;;;;;5.10;2.30;;;;;;;;;;6264930;28;20048;-81
2023/07/18 04:15:42;;;;;;;4.63;2.33;;;;;;;;;;6280053;28;20491;-80
2023/07/18 04:18:44;;;;;;;5.70;2.53;;;;;;;;;;6251230;28;20052;-79
2023/07/18 04:21:46;;;;;;;5.03;2.42;;;;;;;;;;6278962;28;20067;-79
2023/07/18 04:24:48;;;;;;;4.90;2.30;;;;;;;;;;6246451;28;20522;-80
2023/07/18 04:27:49;;;;;;;5.57;2.70;;;;;;;;;;6266014;28;20569;-81
2023/07/18 04:30:51;;;;;;;4.47;2.83;;;;;;;;;;6261443;28;20039;-81
2023/07/18 04:33:53;;;;;;;6.93;3.30;;;;;;;;;;6272973;28;20533;-81
2023/07/18 04:36:54;;;;;;;6.72;3.13;;;;;;;;;;6283542;28;20136;-80
2023/07/18 04:39:56;;;;;;;6.15;2.80;;;;;;;;;;6278593;28;20045;-79
2023/07/18 04:42:58;;;;;;;4.70;2.67;;;;;;;;;;6281570;28;20079;-81
2023/07/18 04:45:59;;;;;;;8.13;3.15;;;;;;;;;;6263991;28;20667;-81
2023/07/18 04:49:01;;;;;;;3.90;2.60;;;;;;;;;;6265928;28;20052;-79
2023/07/18 04:52:03;;;;;;;5.70;2.80;;;;;;;;;;6275761;28;21583;-79
2023/07/18 04:55:05;;;;;;;6.32;3.17;;;;;;;;;;6272006;28;20052;-79
2023/07/18 04:58:08;;;;;;;5.05;2.42;;;;;;;;;;6260323;28;20506;-80
2023/07/18 05:01:09;;;;;;;5.57;2.87;;;;;;;;;;6279018;28;20057;-79
2023/07/18 05:04:11;;;;;;;3.72;2.35;;;;;;;;;;6242947;28;20072;-79
2023/07/18 05:07:13;;;;;;;9.18;2.58;;;;;;;;;;6271867;28;20498;-80
2023/07/18 05:10:15;;;;;;;7.55;3.30;;;;;;;;;;6272389;28;20063;-79
2023/07/18 05:13:16;;;;;;;4.82;2.30;;;;;;;;;;6274916;28;20514;-80
2023/07/18 05:16:18;;;;;;;8.85;2.90;;;;;;;;;;6272664;28;20074;-79
2023/07/18 05:19:20;;;;;;;5.05;2.63;;;;;;;;;;6278571;28;20149;-77
2023/07/18 05:22:22;;;;;;;5.53;3.38;;;;;;;;;;6245433;28;20052;-79
2023/07/18 05:25:24;;;;;;;6.55;3.33;;;;;;;;;;6262104;28;20098;-80
2023/07/18 05:28:25;;;;;;;7.28;3.22;;;;;;;;;;6278707;28;20044;-79
2023/07/18 05:31:27;;;;;;;5.35;3.05;;;;;;;;;;6278631;28;20137;-79
2023/07/18 05:34:29;;;;;;;6.40;3.08;;;;;;;;;;6255608;28;20517;-79
2023/07/18 05:37:31;;;;;;;5.07;3.13;;;;;;;;;;6273447;28;20187;-80
2023/07/18 05:40:32;;;;;;;6.00;3.35;;;;;;;;;;6276168;28;20047;-79
2023/07/18 05:43:34;;;;;;;6.22;3.20;;;;;;;;;;6265951;28;20044;-79
2023/07/18 05:46:36;;;;;;;5.10;2.50;;;;;;;;;;6245577;28;20045;-80
2023/07/18 05:49:41;;;;;;;6.20;2.72;;;;;;;;;;6248347;28;20040;-81
2023/07/18 05:52:43;;;;;;;5.30;2.85;;;;;;;;;;6242949;28;20055;-79
2023/07/18 05:55:45;;;;;;;5.82;2.80;;;;;;;;;;6274480;28;20107;-80
2023/07/18 05:58:47;;;;;;;5.25;2.85;;;;;;;;;;6259271;28;20052;-79
2023/07/18 06:01:49;;;;;;;6.63;2.53;;;;;;;;;;6263729;28;20044;-79
2023/07/18 06:04:51;;;;;;;6.63;2.78;;;;;;;;;;6277535;28;20049;-80
2023/07/18 06:07:52;;;;;;;6.40;2.92;;;;;;;;;;6276483;28;20049;-79
2023/07/18 06:10:56;;;;;;;6.65;3.17;;;;;;;;;;6263501;28;20621;-81
2023/07/18 06:13:59;;;;;;;6.90;3.03;;;;;;;;;;6282915;28;20599;-81
2023/07/18 06:17:01;;;;;;;5.60;2.75;;;;;;;;;;6258474;28;20063;-79
2023/07/18 06:20:09;;;;;;;8.07;2.70;;;;;;;;;;6277419;28;20056;-80
2023/07/18 06:23:11;;;;;;;4.55;2.50;;;;;;;;;;6285338;28;20047;-79
2023/07/18 06:26:12;;;;;;;5.53;2.67;;;;;;;;;;6260129;28;20120;-82
2023/07/18 06:29:18;;;;;;;4.20;2.60;;;;;;;;;;6278943;28;20593;-80
2023/07/18 06:32:21;;;;;;;9.43;2.90;;;;;;;;;;6287202;28;20045;-81
2023/07/18 06:35:23;;;;;;;6.35;2.80;;;;;;;;;;6270575;28;20403;-80
2023/07/18 06:38:26;;;;;;;8.23;2.85;;;;;;;;;;6281408;28;20078;-80
2023/07/18 06:41:27;;;;;;;5.25;2.60;;;;;;;;;;6283155;28;20402;-81
2023/07/18 06:44:31;;;;;;;13.20;6.18;;;;;;;;;;6266428;28;20044;-80
2023/07/18 06:47:34;;;;;;;12.77;6.20;;;;;;;;;;6278292;28;20091;-80
2023/07/18 06:50:37;;;;;;;8.10;3.42;;;;;;;;;;6258831;28;20045;-79
2023/07/18 06:53:39;;;;;;;4.60;2.28;;;;;;;;;;6274277;28;20063;-76
2023/07/18 06:56:42;;;;;;;4.35;2.47;;;;;;;;;;6280406;28;20072;-79
2023/07/18 06:59:44;;;;;;;5.05;2.28;;;;;;;;;;6279577;28;20129;-79
2023/07/18 07:02:46;;;;;;;6.28;2.50;;;;;;;;;;6254028;28;20092;-81
2023/07/18 07:05:47;;;;;;;7.10;2.22;;;;;;;;;;6268946;28;20414;-79
2023/07/18 07:08:50;;;;;;;4.95;1.92;;;;;;;;;;6261078;28;20051;-78
2023/07/18 07:11:51;;;;;;;3.67;2.10;;;;;;;;;;6262377;28;20070;-77
2023/07/18 07:14:53;;;;;;;3.88;1.98;;;;;;;;;;6257429;28;20047;-78
2023/07/18 07:17:55;;;;;;;3.72;2.33;;;;;;;;;;6231931;28;20037;-76
2023/07/18 07:20:57;;;;;;;5.68;2.30;;;;;;;;;;6260131;28;20072;-76
2023/07/18 07:23:59;;;;;;;3.00;1.70;;;;;;;;;;6247522;28;20059;-78
2023/07/18 07:27:00;;;;;;;4.32;2.10;;;;;;;;;;6263859;28;20044;-77
2023/07/18 07:30:02;;;;;;;4.63;2.10;;;;;;;;;;6277935;28;20049;-78
2023/07/18 07:33:07;;;;;;;4.65;1.92;;;;;;;;;;6270616;28;20498;-77
2023/07/18 07:36:09;;;;;;;3.67;2.08;;;;;;;;;;6274785;28;20540;-78
2023/07/18 07:39:12;;;;;;;3.77;2.00;;;;;;;;;;6257597;28;20075;-77
2023/07/18 07:42:14;;;;;;;3.75;2.20;;;;;;;;;;6266862;28;20522;-80
2023/07/18 07:45:16;;;;;;;5.22;1.48;;;;;;;;;;6283791;28;20491;-76
2023/07/18 07:48:18;;;;;;;3.15;1.90;;;;;;;;;;6277323;28;20041;-78
2023/07/18 07:51:19;;;;;;;3.05;1.55;;;;;;;;;;6274486;28;20049;-78
2023/07/18 07:54:21;;;;;;;3.17;1.65;;;;;;;;;;6271465;28;20049;-77
2023/07/18 07:57:23;;;;;;;3.53;1.90;;;;;;;;;;6263530;28;20399;-78
2023/07/18 08:00:26;;;;;;;2.90;1.73;;;;;;;;;;6274515;28;20044;-78
2023/07/18 08:03:27;;;;;;;6.07;1.98;;;;;;;;;;6262022;28;20458;-77
2023/07/18 08:06:29;;;;;;;3.90;1.60;;;;;;;;;;6273989;28;20037;-75
2023/07/18 08:09:31;;;;;;;4.60;2.17;;;;;;;;;;6276576;28;20049;-78
2023/07/18 08:12:33;;;;;;;5.10;1.97;;;;;;;;;;6257955;28;20056;-75
2023/07/18 08:15:34;;;;;;;3.35;2.08;;;;;;;;;;6279760;28;20059;-78
2023/07/18 08:18:36;;;;;;;2.92;1.70;;;;;;;;;;6274051;28;20051;-78
2023/07/18 08:21:37;;;;;;;2.78;1.50;;;;;;;;;;6258996;28;20045;-79
2023/07/18 08:24:39;;;;;;;3.33;1.60;;;;;;;;;;6279814;28;20070;-79
2023/07/18 08:27:41;;;;;;;3.95;1.60;;;;;;;;;;6273450;28;20044;-79
2023/07/18 08:30:43;;;;;;;3.25;1.65;;;;;;;;;;6281043;28;20426;-77
2023/07/18 08:33:45;;;;;;;3.53;1.58;;;;;;;;;;6275748;28;20064;-77
2023/07/18 08:36:47;;;;;;;4.87;1.83;;;;;;;;;;6261545;28;20052;-77
2023/07/18 08:39:48;;;;;;;2.80;1.40;;;;;;;;;;6277227;28;20041;-77
2023/07/18 08:42:50;;;;;;;5.25;2.10;;;;;;;;;;6246307;28;20053;-76
2023/07/18 08:45:52;;;;;;;5.53;1.95;;;;;;;;;;6259927;28;20048;-78
2023/07/18 08:48:55;;;;;;;3.30;1.77;;;;;;;;;;6278741;28;20041;-77
2023/07/18 08:51:56;;;;;;;3.50;1.60;;;;;;;;;;6257881;28;21201;-77
2023/07/18 08:54:58;;;;;;;4.57;2.05;;;;;;;;;;6276073;28;20048;-77
2023/07/18 08:58:00;;;;;;;2.30;1.90;;;;;;;;;;6277751;28;20041;-76
2023/07/18 09:01:03;;;;;;;4.88;2.03;;;;;;;;;;6280674;28;20055;-77
2023/07/18 09:04:04;;;;;;;6.07;1.95;;;;;;;;;;6258109;28;20048;-78
2023/07/18 09:07:06;;;;;;;3.30;1.70;;;;;;;;;;6274107;28;20658;-76
2023/07/18 09:10:08;;;;;;;2.97;1.90;;;;;;;;;;6280293;28;20051;-78
2023/07/18 09:13:10;;;;;;;5.25;1.70;;;;;;;;;;6277926;28;20045;-79
2023/07/18 09:16:20;;;;;;;4.60;2.03;;;;;;;;;;6277333;28;20499;-78
2023/07/18 09:19:39;;;;;;;3.08;1.70;;;;;;;;;;6274399;28;20071;-78
2023/07/18 09:22:42;;;;;;;2.42;1.50;;;;;;;;;;6262928;28;20071;-78
2023/07/18 09:25:43;;;;;;;3.08;1.70;;;;;;;;;;6280788;28;20071;-78
2023/07/18 09:28:46;;;;;;;2.53;1.48;;;;;;;;;;6282578;28;20040;-80
2023/07/18 09:31:49;;;;;;;;;;;;;;;;;;6247486;28;20411;-79
2023/07/18 09:34:54;;;;;;;;;;;;;;;;;;6260024;28;19921;-77
2023/07/18 09:37:56;;;;;;;2.95;1.63;;;;;;;;;;6279799;28;19924;-78
2023/07/18 09:40:58;;;;;;;4.65;1.80;;;;;;;;;;6265596;28;20060;-80
2023/07/18 09:44:02;;;;;;;2.88;1.75;;;;;;;;;;6267409;28;20131;-79
2023/07/18 09:47:23;;;;;;;5.47;2.00;;;;;;;;;;6257310;28;20518;-78
2023/07/18 09:50:26;;;;;;;3.33;1.70;;;;;;;;;;6272950;28;20052;-80
2023/07/18 09:53:28;;;;;;;;;;;;;;;;;;6281040;28;20044;-81
2023/07/18 09:56:33;;;;;;;3.07;1.90;;;;;;;;;;6283307;28;20005;-80
2023/07/18 09:59:39;;;;;;;3.30;1.73;;;;;;;;;;6260992;28;20048;-80
2023/07/18 10:02:42;;;;;;;4.22;2.08;;;;;;;;;;6272847;28;20469;-80
2023/07/18 10:05:44;;;;;;;3.50;2.00;;;;;;;;;;6273690;28;20729;-82
2023/07/18 10:08:47;;;;;;;3.13;1.85;;;;;;;;;;6264867;28;20456;-82
2023/07/18 10:11:57;;;;;;;4.20;1.80;;;;;;;;;;6274888;28;20033;-81
2023/07/18 10:15:00;;;;;;;5.43;2.47;;;;;;;;;;6266319;28;20040;-81
2023/07/18 10:18:17;;;;;;;3.45;1.90;;;;;;;;;;6274243;28;20055;-80
2023/07/18 10:21:30;;;;;;;3.08;2.17;;;;;;;;;;6268422;28;20048;-82
2023/07/18 10:24:31;;;;;;;3.75;2.30;;;;;;;;;;6263450;28;20052;-82
2023/07/18 10:27:36;;;;;;;2.70;1.88;;;;;;;;;;6283228;28;20040;-82
2023/07/18 10:30:42;;;;;;;3.35;1.77;;;;;;;;;;6286512;28;20104;-83
2023/07/18 10:34:18;;;;;;;3.17;1.95;;;;;;;;;;6275982;28;20037;-82
2023/07/18 10:37:26;;;;;;;2.67;1.92;;;;;;;;;;6220127;28;20052;-82
2023/07/18 10:40:49;;;;;;;2.65;1.73;;;;;;;;;;6278438;28;20090;-82
2023/07/18 10:43:50;;;;;;;2.78;1.80;;;;;;;;;;6266265;28;20044;-82
2023/07/18 10:46:52;;;;;;;5.50;1.80;;;;;;;;;;6252446;28;20056;-80
2023/07/18 10:49:55;;;;;;;2.88;1.88;;;;;;;;;;6263089;28;20044;-81
2023/07/18 10:52:56;;;;;;;;;;;;;;;;;;6278114;28;20048;-82
2023/07/18 10:55:58;;;;;;;2.50;1.50;;;;;;;;;;6284522;28;19966;-82
2023/07/18 10:58:59;;;;;;;2.77;1.97;;;;;;;;;;6281189;28;20629;-83
2023/07/18 11:02:02;;;;;;;2.77;1.80;;;;;;;;;;6275445;28;20102;-82
2023/07/18 11:05:11;;;;;;;;;;;;;;;;;;6277483;28;20048;-81
2023/07/18 11:08:25;;;;;;;3.40;1.50;;;;;;;;;;6283852;28;19920;-81
2023/07/18 11:11:27;;;;;;;3.83;1.90;;;;;;;;;;6279421;28;20436;-81
2023/07/18 11:14:40;;;;;;;3.50;1.83;;;;;;;;;;6273224;28;20045;-80
2023/07/18 11:17:43;;;;;;;3.65;1.60;;;;;;;;;;6296038;28;20287;-80
2023/07/18 11:20:45;;;;;;;5.38;1.80;;;;;;;;;;6269795;28;20658;-80
2023/07/18 11:23:47;;;;;;;2.70;1.80;;;;;;;;;;6264927;28;20080;-80
2023/07/18 11:27:16;;;;;;;4.03;2.00;;;;;;;;;;6264044;28;20495;-80
2023/07/18 11:30:21;;;;;;;3.70;2.00;;;;;;;;;;6249929;28;20063;-80
2023/07/18 11:33:28;;;;;;;4.15;1.75;;;;;;;;;;6277250;28;20067;-80
2023/07/18 11:36:36;;;;;;;3.88;1.80;;;;;;;;;;6266724;28;20048;-80
2023/07/18 11:39:38;;;;;;;3.72;1.70;;;;;;;;;;6279268;28;20039;-80
2023/07/18 11:42:51;;;;;;;4.75;1.92;;;;;;;;;;6281180;28;20462;-80
2023/07/18 11:45:56;;;;;;;5.10;2.10;;;;;;;;;;6277247;28;20147;-80
2023/07/18 11:48:57;;;;;;;3.33;1.73;;;;;;;;;;6270606;28;20041;-79
2023/07/18 11:52:03;;;;;;;2.63;1.75;;;;;;;;;;6260251;28;20055;-79
2023/07/18 11:55:06;;;;;;;4.18;2.13;;;;;;;;;;6277550;28;20525;-81
2023/07/18 11:58:09;;;;;;;3.63;1.98;;;;;;;;;;6274483;28;20097;-80
2023/07/18 12:01:11;;;;;;;3.75;1.85;;;;;;;;;;6261466;28;20041;-81
2023/07/18 12:04:14;;;;;;;3.70;1.90;;;;;;;;;;6275574;28;20414;-80
2023/07/18 12:07:16;;;;;;;;;;;;;;;;;;6280816;28;20044;-80
2023/07/18 12:10:20;;;;;;;3.28;1.90;;;;;;;;;;6278802;28;19920;-79
2023/07/18 12:13:25;;;;;;;3.42;1.77;;;;;;;;;;6279103;28;20053;-80
2023/07/18 12:16:26;;;;;;;;;;;;;;;;;;6274201;28;20088;-79
2023/07/18 12:19:28;;;;;;;5.25;1.80;;;;;;;;;;6262094;28;20370;-82
2023/07/18 12:22:30;;;;;;;2.95;1.77;;;;;;;;;;6283424;28;20055;-80
2023/07/18 12:25:33;;;;;;;3.13;2.10;;;;;;;;;;6284727;28;20040;-81
2023/07/18 12:28:35;;;;;;;4.43;1.90;;;;;;;;;;6286343;28;20123;-80
2023/07/18 12:31:36;;;;;;;3.17;2.10;;;;;;;;;;6280015;28;20048;-80
2023/07/18 12:34:39;;;;;;;3.28;2.15;;;;;;;;;;6261673;28;20256;-79
2023/07/18 12:37:41;;;;;;;3.13;2.08;;;;;;;;;;6281720;28;20118;-76
2023/07/18 12:40:43;;;;;;;3.58;2.33;;;;;;;;;;6280968;28;20048;-79
2023/07/18 12:43:44;;;;;;;5.50;2.30;;;;;;;;;;6282972;28;20126;-77
2023/07/18 12:46:47;;;;;;;4.38;1.90;;;;;;;;;;6254039;28;20037;-81
2023/07/18 12:49:48;;;;;;;;;;;;;;;;;;6256222;28;20179;-81
2023/07/18 12:52:53;;;;;;;3.08;2.00;;;;;;;;;;6261671;28;19964;-80
2023/07/18 12:55:55;;;;;;;5.70;2.20;;;;;;;;;;6279691;28;20056;-80
2023/07/18 12:58:56;;;;;;;3.38;1.75;;;;;;;;;;6275850;28;20053;-82
2023/07/18 13:01:58;;;;;;;2.97;1.80;;;;;;;;;;6271880;28;20055;-79
2023/07/18 13:05:03;;;;;;;;;;;;;;;;;;6265477;28;20070;-78
2023/07/18 13:08:05;;;;;;;3.17;2.00;;;;;;;;;;6249387;28;19935;-80
2023/07/18 13:11:07;;;;;;;4.65;2.20;;;;;;;;;;6280771;28;20040;-80
2023/07/18 13:14:08;;;;;;;2.75;1.80;;;;;;;;;;6273273;28;20044;-80
2023/07/18 13:17:10;;;;;;;4.45;2.10;;;;;;;;;;6254547;28;20052;-81
2023/07/18 13:20:12;;;;;;;3.33;2.30;;;;;;;;;;6274013;28;20045;-80
2023/07/18 13:23:14;;;;;;;3.50;1.75;;;;;;;;;;6289855;28;20063;-80
2023/07/18 13:26:18;;;;;;;3.00;2.08;;;;;;;;;;6262584;28;20120;-81
2023/07/18 13:29:20;;;;;;;3.80;1.95;;;;;;;;;;6279275;28;20056;-81
2023/07/18 13:32:22;;;;;;;3.33;1.92;;;;;;;;;;6280882;28;20044;-81
2023/07/18 13:35:23;;;;;;;3.75;2.25;;;;;;;;;;6279808;28;20126;-81
2023/07/18 13:38:25;;;;;;;3.97;2.15;;;;;;;;;;6280950;28;20135;-80
2023/07/18 13:41:27;;;;;;;3.75;2.08;;;;;;;;;;6281040;28;20060;-81
2023/07/18 13:44:28;;;;;;;3.28;2.13;;;;;;;;;;6247886;28;20511;-81
2023/07/18 13:47:30;;;;;;;3.83;1.98;;;;;;;;;;6277523;28;20044;-80
2023/07/18 13:50:32;;;;;;;3.10;2.08;;;;;;;;;;6280203;28;20040;-82
2023/07/18 13:53:34;;;;;;;3.00;2.03;;;;;;;;;;6280858;28;20052;-84
2023/07/18 13:56:35;;;;;;;3.83;1.73;;;;;;;;;;6285215;28;20052;-82
2023/07/18 13:59:37;;;;;;;4.63;1.90;;;;;;;;;;6260188;28;20047;-83
2023/07/18 14:02:39;;;;;;;2.22;1.90;;;;;;;;;;6283026;28;20060;-82
2023/07/18 14:05:41;;;;;;;2.65;2.00;;;;;;;;;;6287483;28;20055;-83
2023/07/18 14:08:43;;;;;;;3.17;1.95;;;;;;;;;;6286105;28;20060;-83
2023/07/18 14:11:46;;;;;;;2.72;1.88;;;;;;;;;;6281215;28;20036;-80
2023/07/18 14:14:48;;;;;;;1.85;1.70;;;;;;;;;;6283122;28;20041;-81
2023/07/18 14:17:50;;;;;;;2.30;2.05;;;;;;;;;;6275021;28;20978;-79
2023/07/18 14:20:52;;;;;;;3.28;2.10;;;;;;;;;;6269390;28;20090;-80
2023/07/18 14:23:53;;;;;;;3.78;2.10;;;;;;;;;;6284503;28;20050;-77
2023/07/18 14:26:55;;;;;;;2.92;1.98;;;;;;;;;;6289172;28;20405;-79
2023/07/18 14:29:57;;;;;;;3.53;2.08;;;;;;;;;;6286285;28;20075;-77
2023/07/18 14:32:59;;;;;;;2.55;1.85;;;;;;;;;;6266675;28;20040;-77
2023/07/18 14:36:03;;;;;;;1.95;1.70;;;;;;;;;;6275033;28;20414;-81
2023/07/18 14:39:05;;;;;;;;;;;;;;;;;;6268425;28;20125;-81
2023/07/18 14:42:07;;;;;;;4.00;2.13;;;;;;;;;;6298160;28;19931;-77
2023/07/18 14:45:09;;;;;;;4.85;2.03;;;;;;;;;;6282202;28;22207;-77
2023/07/18 14:48:11;;;;;;;4.28;1.90;;;;;;;;;;6276134;28;20057;-78
2023/07/18 14:51:13;;;;;;;2.90;2.13;;;;;;;;;;6263483;28;20041;-79
2023/07/18 14:54:16;;;;;;;;;;;;;;;;;;6246750;28;20517;-80
2023/07/18 14:57:18;;;;;;;4.30;2.00;;;;;;;;;;6272513;28;20317;-78
2023/07/18 15:00:20;;;;;;;2.85;1.80;;;;;;;;;;6274435;28;20049;-77
2023/07/18 15:03:22;;;;;;;2.00;1.70;;;;;;;;;;6277346;28;20049;-80
2023/07/18 15:06:24;;;;;;;;;;;;;;;;;;6278876;28;20048;-77
2023/07/18 15:09:26;;;;;;;3.20;2.10;;;;;;;;;;6274018;28;20406;-77
2023/07/18 15:12:27;;;;;;;2.70;1.83;;;;;;;;;;6277653;28;20044;-79
2023/07/18 15:15:29;;;;;;;;;;;;;;;;;;6262271;28;20084;-78
2023/07/18 15:18:31;;;;;;;2.80;1.60;;;;;;;;;;6277444;28;20430;-78
2023/07/18 15:21:32;;;;;;;3.25;2.00;;;;;;;;;;6264103;28;20055;-79
2023/07/18 15:24:34;;;;;;;2.72;2.05;;;;;;;;;;6263737;28;20044;-76
2023/07/18 15:27:37;;;;;;;2.33;1.80;;;;;;;;;;6280395;28;20044;-77
2023/07/18 15:30:39;;;;;;;2.50;1.85;;;;;;;;;;6273682;28;20052;-76
2023/07/18 15:33:40;;;;;;;2.92;2.00;;;;;;;;;;6276405;28;20048;-76
2023/07/18 15:36:46;;;;;;;2.95;1.70;;;;;;;;;;6277533;28;20047;-76
2023/07/18 15:39:47;;;;;;;3.72;2.20;;;;;;;;;;6274686;28;20102;-76
2023/07/18 15:42:49;;;;;;;4.10;2.13;;;;;;;;;;6277172;28;20064;-74
2023/07/18 15:45:51;;;;;;;3.25;2.10;;;;;;;;;;6273866;28;20170;-73
2023/07/18 15:48:53;;;;;;;;;;;;;;;;;;6271794;28;20048;-76
2023/07/18 15:51:54;;;;;;;2.53;2.00;;;;;;;;;;6279777;28;20340;-75
2023/07/18 15:54:57;;;;;;;3.65;1.75;;;;;;;;;;6256020;28;20087;-74
2023/07/18 15:57:59;;;;;;;4.85;1.90;;;;;;;;;;6273072;28;20037;-74
2023/07/18 16:01:01;;;;;;;2.35;2.10;;;;;;;;;;6260622;28;20051;-75
2023/07/18 16:04:03;;;;;;;4.53;2.00;;;;;;;;;;6260480;28;20198;-74
2023/07/18 16:07:05;;;;;;;3.05;1.70;;;;;;;;;;6261522;28;20063;-74
2023/07/18 16:10:07;;;;;;;;;;;;;;;;;;6273275;28;20055;-75
2023/07/18 16:13:09;;;;;;;3.13;2.00;;;;;;;;;;6276852;28;19928;-77
2023/07/18 16:16:11;;;;;;;3.63;1.90;;;;;;;;;;6277845;28;20036;-76
2023/07/18 16:19:12;;;;;;;;;;;;;;;;;;6277794;28;20044;-74
2023/07/18 16:22:18;;;;;;;2.87;2.00;;;;;;;;;;6259117;28;19935;-73
2023/07/18 16:25:21;;;;;;;5.13;2.05;;;;;;;;;;6257671;28;20422;-73
2023/07/18 16:28:26;;;;;;;2.25;1.67;;;;;;;;;;6271503;28;20076;-75
2023/07/18 16:31:30;;;;;;;2.70;1.88;;;;;;;;;;6269725;28;20045;-75
2023/07/18 16:34:36;;;;;;;3.50;1.80;;;;;;;;;;6258392;28;20522;-73
2023/07/18 16:37:37;;;;;;;3.10;1.83;;;;;;;;;;6274776;28;20090;-81
2023/07/18 16:40:39;;;;;;;4.72;1.73;;;;;;;;;;6244180;28;20511;-76
2023/07/18 16:43:40;;;;;;;3.00;1.85;;;;;;;;;;6267888;28;20045;-79
2023/07/18 16:46:42;;;;;;;3.45;1.98;;;;;;;;;;6274844;28;20454;-79
2023/07/18 16:49:44;;;;;;;4.82;2.22;;;;;;;;;;6261136;28;20435;-76
2023/07/18 16:52:46;;;;;;;3.67;1.90;;;;;;;;;;6282011;28;20044;-79
2023/07/18 16:55:51;;;;;;;;;;;;;;;;;;6260214;28;20048;-78
2023/07/18 16:58:53;;;;;;;3.15;2.42;;;;;;;;;;6275835;28;19928;-78
2023/07/18 17:01:55;;;;;;;2.33;1.88;;;;;;;;;;6278906;28;20053;-76
2023/07/18 17:04:56;;;;;;;2.38;1.73;;;;;;;;;;6264386;28;20122;-78
2023/07/18 17:07:58;;;;;;;2.97;1.80;;;;;;;;;;6281602;28;20102;-77
2023/07/18 17:11:00;;;;;;;3.90;1.80;;;;;;;;;;6280547;28;20045;-77
2023/07/18 17:14:02;;;;;;;2.90;1.83;;;;;;;;;;6282957;28;20051;-77
2023/07/18 17:17:04;;;;;;;3.22;2.13;;;;;;;;;;6268238;28;20044;-76
2023/07/18 17:20:06;;;;;;;;;;;;;;;;;;6252313;28;20480;-77
2023/07/18 17:23:10;;;;;;;2.47;1.70;;;;;;;;;;6265131;28;19974;-78
2023/07/18 17:26:12;;;;;;;2.92;2.13;;;;;;;;;;6265705;28;20052;-77
2023/07/18 17:29:13;;;;;;;2.88;1.70;;;;;;;;;;6280426;28;20048;-79
2023/07/18 17:32:17;;;;;;;3.97;2.05;;;;;;;;;;6281849;28;20067;-84
2023/07/18 17:35:19;;;;;;;2.03;1.60;;;;;;;;;;6261400;28;20410;-82
2023/07/18 17:38:21;;;;;;;3.58;1.95;;;;;;;;;;6264798;28;20517;-83
2023/07/18 17:41:23;;;;;;;3.00;2.10;;;;;;;;;;6279430;28;20045;-84
2023/07/18 17:44:24;;;;;;;3.78;2.00;;;;;;;;;;6245943;28;20057;-82
2023/07/18 17:47:26;;;;;;;3.05;2.00;;;;;;;;;;6279989;28;20044;-84
2023/07/18 17:50:28;;;;;;;3.97;1.80;;;;;;;;;;6281958;28;20041;-84
2023/07/18 17:53:30;;;;;;;2.40;1.52;;;;;;;;;;6281154;28;20052;-83
2023/07/18 17:56:32;;;;;;;3.75;1.90;;;;;;;;;;6282408;28;20052;-81
2023/07/18 17:59:34;;;;;;;4.43;1.90;;;;;;;;;;6280711;28;20052;-82
2023/07/18 18:02:36;;;;;;;3.47;1.75;;;;;;;;;;6285322;28;20072;-83
2023/07/18 18:05:50;;;;;;;2.95;1.92;;;;;;;;;;6251670;28;20075;-82
2023/07/18 18:08:51;;;;;;;2.75;1.83;;;;;;;;;;6274190;28;20045;-85
2023/07/18 18:11:55;;;;;;;2.60;1.90;;;;;;;;;;6307153;28;20032;-81
2023/07/18 18:14:57;;;;;;;2.78;1.80;;;;;;;;;;6274962;28;20036;-79
2023/07/18 18:17:59;;;;;;;3.97;1.90;;;;;;;;;;6258729;28;20476;-80
2023/07/18 18:21:02;;;;;;;2.88;1.60;;;;;;;;;;6282835;28;20044;-82